sensor_id;sensor_type;location;lat;lon;timestamp;temperature;humidity
5176;DHT22;2607;50.934;6.934;2023-03-05T00:01:32;6.20;99.90
5176;DHT22;2607;50.934;6.934;2023-03-05T00:03:59;6.30;99.90
5176;DHT22;2607;50.934;6.934;2023-03-05T00:06:27;6.30;99.90
5176;DHT22;2607;50.934;6.934;2023-03-05T00:08:53;6.30;99.90
5176;DHT22;2607;50.934;6.934;2023-03-05T00:11:21;6.40;99.90
5176;DHT22;2607;50.934;6.934;2023-03-05T00:13:51;6.30;99.90
5176;DHT22;2607;50.934;6.934;2023-03-05T00:16:16;6.30;99.90
5176;DHT22;2607;50.934;6.934;2023-03-05T00:18:42;6.20;99.90
5176;DHT22;2607;50.934;6.934;2023-03-05T00:23:46;6.20;99.90
5176;DHT22;2607;50.934;6.934;2023-03-05T00:26:11;6.10;99.90
5176;DHT22;2607;50.934;6.934;2023-03-05T00:28:37;6.10;99.90
5176;DHT22;2607;50.934;6.934;2023-03-05T00:31:03;6.10;99.90
5176;DHT22;2607;50.934;6.934;2023-03-05T00:33:29;6.10;99.90
5176;DHT22;2607;50.934;6.934;2023-03-05T00:35:54;6.00;99.90
5176;DHT22;2607;50.934;6.934;2023-03-05T00:38:20;6.10;99.90
5176;DHT22;2607;50.934;6.934;2023-03-05T00:40:45;6.10;99.90
5176;DHT22;2607;50.934;6.934;2023-03-05T00:43:14;6.00;99.90
5176;DHT22;2607;50.934;6.934;2023-03-05T00:45:39;6.00;99.90
5176;DHT22;2607;50.934;6.934;2023-03-05T00:48:05;6.00;99.90
5176;DHT22;2607;50.934;6.934;2023-03-05T00:50:31;6.00;99.90
5176;DHT22;2607;50.934;6.934;2023-03-05T00:52:56;6.00;99.90
5176;DHT22;2607;50.934;6.934;2023-03-05T00:55:22;6.00;99.90
5176;DHT22;2607;50.934;6.934;2023-03-05T00:57:47;6.00;99.90
5176;DHT22;2607;50.934;6.934;2023-03-05T01:00:14;6.00;99.90
5176;DHT22;2607;50.934;6.934;2023-03-05T01:02:40;6.00;99.90
5176;DHT22;2607;50.934;6.934;2023-03-05T01:05:06;6.00;99.90
5176;DHT22;2607;50.934;6.934;2023-03-05T01:07:32;5.90;99.90
5176;DHT22;2607;50.934;6.934;2023-03-05T01:09:57;5.90;99.90
5176;DHT22;2607;50.934;6.934;2023-03-05T01:12:23;5.90;99.90
5176;DHT22;2607;50.934;6.934;2023-03-05T01:14:48;5.90;99.90
5176;DHT22;2607;50.934;6.934;2023-03-05T01:17:14;5.80;99.90
5176;DHT22;2607;50.934;6.934;2023-03-05T01:19:39;5.90;99.90
5176;DHT22;2607;50.934;6.934;2023-03-05T01:22:05;5.90;99.90
5176;DHT22;2607;50.934;6.934;2023-03-05T01:24:31;5.80;99.90
5176;DHT22;2607;50.934;6.934;2023-03-05T01:26:57;5.90;99.90
5176;DHT22;2607;50.934;6.934;2023-03-05T01:29:22;5.90;99.90
5176;DHT22;2607;50.934;6.934;2023-03-05T01:31:48;5.80;99.90
5176;DHT22;2607;50.934;6.934;2023-03-05T01:34:14;5.80;99.90
5176;DHT22;2607;50.934;6.934;2023-03-05T01:36:41;5.90;99.90
5176;DHT22;2607;50.934;6.934;2023-03-05T01:39:07;5.80;99.90
5176;DHT22;2607;50.934;6.934;2023-03-05T01:41:32;5.80;99.90
5176;DHT22;2607;50.934;6.934;2023-03-05T01:43:59;5.80;99.90
5176;DHT22;2607;50.934;6.934;2023-03-05T01:46:29;5.80;99.90
5176;DHT22;2607;50.934;6.934;2023-03-05T01:49:04;5.80;99.90
5176;DHT22;2607;50.934;6.934;2023-03-05T01:51:34;5.90;99.90
5176;DHT22;2607;50.934;6.934;2023-03-05T01:54:01;5.80;99.90
5176;DHT22;2607;50.934;6.934;2023-03-05T01:56:28;5.90;99.90
5176;DHT22;2607;50.934;6.934;2023-03-05T01:58:55;5.80;99.90
5176;DHT22;2607;50.934;6.934;2023-03-05T02:01:29;5.80;99.90
5176;DHT22;2607;50.934;6.934;2023-03-05T02:03:55;5.80;99.90
5176;DHT22;2607;50.934;6.934;2023-03-05T02:06:20;5.80;99.90
5176;DHT22;2607;50.934;6.934;2023-03-05T02:08:46;5.80;99.90
5176;DHT22;2607;50.934;6.934;2023-03-05T02:11:11;5.80;99.90
5176;DHT22;2607;50.934;6.934;2023-03-05T02:13:37;5.80;99.90
5176;DHT22;2607;50.934;6.934;2023-03-05T02:16:06;5.80;99.90
5176;DHT22;2607;50.934;6.934;2023-03-05T02:18:32;5.80;99.90
5176;DHT22;2607;50.934;6.934;2023-03-05T02:20:59;5.80;99.90
5176;DHT22;2607;50.934;6.934;2023-03-05T02:23:28;5.80;99.90
5176;DHT22;2607;50.934;6.934;2023-03-05T02:25:54;5.80;99.90
5176;DHT22;2607;50.934;6.934;2023-03-05T02:28:43;5.80;99.90
5176;DHT22;2607;50.934;6.934;2023-03-05T02:31:16;5.80;99.90
5176;DHT22;2607;50.934;6.934;2023-03-05T02:33:43;5.80;99.90
5176;DHT22;2607;50.934;6.934;2023-03-05T02:36:09;5.80;99.90
5176;DHT22;2607;50.934;6.934;2023-03-05T02:38:37;5.80;99.90
5176;DHT22;2607;50.934;6.934;2023-03-05T02:41:03;5.70;99.90
5176;DHT22;2607;50.934;6.934;2023-03-05T02:43:28;5.70;99.90
5176;DHT22;2607;50.934;6.934;2023-03-05T02:45:54;5.70;99.90
5176;DHT22;2607;50.934;6.934;2023-03-05T02:48:19;5.70;99.90
5176;DHT22;2607;50.934;6.934;2023-03-05T02:50:46;5.70;99.90
5176;DHT22;2607;50.934;6.934;2023-03-05T02:53:12;5.70;99.90
5176;DHT22;2607;50.934;6.934;2023-03-05T02:55:37;5.60;99.90
5176;DHT22;2607;50.934;6.934;2023-03-05T02:58:03;5.60;99.90
5176;DHT22;2607;50.934;6.934;2023-03-05T03:00:28;5.70;99.90
5176;DHT22;2607;50.934;6.934;2023-03-05T03:02:54;5.60;99.90
5176;DHT22;2607;50.934;6.934;2023-03-05T03:05:20;5.60;99.90
5176;DHT22;2607;50.934;6.934;2023-03-05T03:07:46;5.60;99.90
5176;DHT22;2607;50.934;6.934;2023-03-05T03:10:11;5.60;99.90
5176;DHT22;2607;50.934;6.934;2023-03-05T03:12:38;5.60;99.90
5176;DHT22;2607;50.934;6.934;2023-03-05T03:15:04;5.60;99.90
5176;DHT22;2607;50.934;6.934;2023-03-05T03:17:30;5.60;99.90
5176;DHT22;2607;50.934;6.934;2023-03-05T03:19:55;5.50;99.90
5176;DHT22;2607;50.934;6.934;2023-03-05T03:22:21;5.50;99.90
5176;DHT22;2607;50.934;6.934;2023-03-05T03:24:47;5.50;99.90
5176;DHT22;2607;50.934;6.934;2023-03-05T03:27:12;5.50;99.90
5176;DHT22;2607;50.934;6.934;2023-03-05T03:29:38;5.50;99.90
5176;DHT22;2607;50.934;6.934;2023-03-05T03:32:04;5.40;99.90
5176;DHT22;2607;50.934;6.934;2023-03-05T03:34:30;5.40;99.90
5176;DHT22;2607;50.934;6.934;2023-03-05T03:36:55;5.40;99.90
5176;DHT22;2607;50.934;6.934;2023-03-05T03:39:21;5.40;99.90
5176;DHT22;2607;50.934;6.934;2023-03-05T03:41:49;5.50;99.90
5176;DHT22;2607;50.934;6.934;2023-03-05T03:44:16;5.40;99.90
5176;DHT22;2607;50.934;6.934;2023-03-05T03:46:43;5.40;99.90
5176;DHT22;2607;50.934;6.934;2023-03-05T03:49:14;5.40;99.90
5176;DHT22;2607;50.934;6.934;2023-03-05T03:51:40;5.40;99.90
5176;DHT22;2607;50.934;6.934;2023-03-05T03:54:05;5.40;99.90
5176;DHT22;2607;50.934;6.934;2023-03-05T03:56:31;5.40;99.90
5176;DHT22;2607;50.934;6.934;2023-03-05T03:58:57;5.40;99.90
5176;DHT22;2607;50.934;6.934;2023-03-05T04:01:22;5.40;99.90
5176;DHT22;2607;50.934;6.934;2023-03-05T04:03:48;5.40;99.90
5176;DHT22;2607;50.934;6.934;2023-03-05T04:06:14;5.30;99.90
5176;DHT22;2607;50.934;6.934;2023-03-05T04:08:39;5.30;99.90
5176;DHT22;2607;50.934;6.934;2023-03-05T04:11:05;5.30;99.90
5176;DHT22;2607;50.934;6.934;2023-03-05T04:13:31;5.30;99.90
5176;DHT22;2607;50.934;6.934;2023-03-05T04:15:56;5.30;99.90
5176;DHT22;2607;50.934;6.934;2023-03-05T04:18:23;5.30;99.90
5176;DHT22;2607;50.934;6.934;2023-03-05T04:20:48;5.30;99.90
5176;DHT22;2607;50.934;6.934;2023-03-05T04:23:14;5.20;99.90
5176;DHT22;2607;50.934;6.934;2023-03-05T04:25:40;5.20;99.90
5176;DHT22;2607;50.934;6.934;2023-03-05T04:28:05;5.20;99.90
5176;DHT22;2607;50.934;6.934;2023-03-05T04:30:31;5.20;99.90
5176;DHT22;2607;50.934;6.934;2023-03-05T04:32:57;5.30;99.90
5176;DHT22;2607;50.934;6.934;2023-03-05T04:35:23;5.20;99.90
5176;DHT22;2607;50.934;6.934;2023-03-05T04:37:48;5.20;99.90
5176;DHT22;2607;50.934;6.934;2023-03-05T04:40:14;5.20;99.90
5176;DHT22;2607;50.934;6.934;2023-03-05T04:42:40;5.30;99.90
5176;DHT22;2607;50.934;6.934;2023-03-05T04:45:07;5.20;99.90
5176;DHT22;2607;50.934;6.934;2023-03-05T04:47:33;5.30;99.90
5176;DHT22;2607;50.934;6.934;2023-03-05T04:49:58;5.20;99.90
5176;DHT22;2607;50.934;6.934;2023-03-05T04:52:24;5.20;99.90
5176;DHT22;2607;50.934;6.934;2023-03-05T04:54:49;5.20;99.90
5176;DHT22;2607;50.934;6.934;2023-03-05T04:57:15;5.20;99.90
5176;DHT22;2607;50.934;6.934;2023-03-05T04:59:41;5.30;99.90
5176;DHT22;2607;50.934;6.934;2023-03-05T05:02:06;5.30;99.90
5176;DHT22;2607;50.934;6.934;2023-03-05T05:04:32;5.20;99.90
5176;DHT22;2607;50.934;6.934;2023-03-05T05:06:58;5.20;99.90
5176;DHT22;2607;50.934;6.934;2023-03-05T05:09:24;5.20;99.90
5176;DHT22;2607;50.934;6.934;2023-03-05T05:11:50;5.20;99.90
5176;DHT22;2607;50.934;6.934;2023-03-05T05:14:16;5.20;99.90
5176;DHT22;2607;50.934;6.934;2023-03-05T05:16:42;5.20;99.90
5176;DHT22;2607;50.934;6.934;2023-03-05T05:19:08;5.20;99.90
5176;DHT22;2607;50.934;6.934;2023-03-05T05:21:34;5.20;99.90
5176;DHT22;2607;50.934;6.934;2023-03-05T05:23:59;5.20;99.90
5176;DHT22;2607;50.934;6.934;2023-03-05T05:26:25;5.20;99.90
5176;DHT22;2607;50.934;6.934;2023-03-05T05:28:52;5.20;99.90
5176;DHT22;2607;50.934;6.934;2023-03-05T05:31:18;5.20;99.90
5176;DHT22;2607;50.934;6.934;2023-03-05T05:33:44;5.20;99.90
5176;DHT22;2607;50.934;6.934;2023-03-05T05:36:13;5.10;99.90
5176;DHT22;2607;50.934;6.934;2023-03-05T05:38:40;5.20;99.90
5176;DHT22;2607;50.934;6.934;2023-03-05T05:41:16;5.10;99.90
5176;DHT22;2607;50.934;6.934;2023-03-05T05:43:42;5.10;99.90
5176;DHT22;2607;50.934;6.934;2023-03-05T05:46:12;5.10;99.90
5176;DHT22;2607;50.934;6.934;2023-03-05T05:48:37;5.10;99.90
5176;DHT22;2607;50.934;6.934;2023-03-05T05:51:06;5.10;99.90
5176;DHT22;2607;50.934;6.934;2023-03-05T05:53:32;5.10;99.90
5176;DHT22;2607;50.934;6.934;2023-03-05T05:55:57;5.10;99.90
5176;DHT22;2607;50.934;6.934;2023-03-05T05:58:23;5.10;99.90
5176;DHT22;2607;50.934;6.934;2023-03-05T06:00:48;5.10;99.90
5176;DHT22;2607;50.934;6.934;2023-03-05T06:03:14;5.10;99.90
5176;DHT22;2607;50.934;6.934;2023-03-05T06:05:42;5.10;99.90
5176;DHT22;2607;50.934;6.934;2023-03-05T06:08:08;5.10;99.90
5176;DHT22;2607;50.934;6.934;2023-03-05T06:10:34;5.10;99.90
5176;DHT22;2607;50.934;6.934;2023-03-05T06:13:00;5.10;99.90
5176;DHT22;2607;50.934;6.934;2023-03-05T06:15:26;5.10;99.90
5176;DHT22;2607;50.934;6.934;2023-03-05T06:17:51;5.10;99.90
5176;DHT22;2607;50.934;6.934;2023-03-05T06:20:19;5.10;99.90
5176;DHT22;2607;50.934;6.934;2023-03-05T06:22:44;5.10;99.90
5176;DHT22;2607;50.934;6.934;2023-03-05T06:25:10;5.10;99.90
5176;DHT22;2607;50.934;6.934;2023-03-05T06:27:36;5.10;99.90
5176;DHT22;2607;50.934;6.934;2023-03-05T06:30:03;5.10;99.90
5176;DHT22;2607;50.934;6.934;2023-03-05T06:32:29;5.10;99.90
5176;DHT22;2607;50.934;6.934;2023-03-05T06:34:54;5.10;99.90
5176;DHT22;2607;50.934;6.934;2023-03-05T06:37:20;5.20;99.90
5176;DHT22;2607;50.934;6.934;2023-03-05T06:39:46;5.20;99.90
5176;DHT22;2607;50.934;6.934;2023-03-05T06:42:11;5.20;99.90
5176;DHT22;2607;50.934;6.934;2023-03-05T06:44:40;5.20;99.90
5176;DHT22;2607;50.934;6.934;2023-03-05T06:47:07;5.10;99.90
5176;DHT22;2607;50.934;6.934;2023-03-05T06:49:35;5.20;99.90
5176;DHT22;2607;50.934;6.934;2023-03-05T06:52:02;5.20;99.90
5176;DHT22;2607;50.934;6.934;2023-03-05T06:54:27;5.20;99.90
5176;DHT22;2607;50.934;6.934;2023-03-05T06:56:53;5.20;99.90
5176;DHT22;2607;50.934;6.934;2023-03-05T06:59:19;5.20;99.90
5176;DHT22;2607;50.934;6.934;2023-03-05T07:01:46;5.20;99.90
5176;DHT22;2607;50.934;6.934;2023-03-05T07:04:12;5.20;99.90
5176;DHT22;2607;50.934;6.934;2023-03-05T07:06:38;5.20;99.90
5176;DHT22;2607;50.934;6.934;2023-03-05T07:09:05;5.20;99.90
5176;DHT22;2607;50.934;6.934;2023-03-05T07:11:31;5.20;99.90
5176;DHT22;2607;50.934;6.934;2023-03-05T07:13:57;5.30;99.90
5176;DHT22;2607;50.934;6.934;2023-03-05T07:16:25;5.30;99.90
5176;DHT22;2607;50.934;6.934;2023-03-05T07:18:51;5.30;99.90
5176;DHT22;2607;50.934;6.934;2023-03-05T07:24:39;5.30;99.90
5176;DHT22;2607;50.934;6.934;2023-03-05T07:27:05;5.30;99.90
5176;DHT22;2607;50.934;6.934;2023-03-05T07:29:31;5.40;99.90
5176;DHT22;2607;50.934;6.934;2023-03-05T07:31:56;5.40;99.90
5176;DHT22;2607;50.934;6.934;2023-03-05T07:34:22;5.40;99.90
5176;DHT22;2607;50.934;6.934;2023-03-05T07:36:51;5.40;99.90
5176;DHT22;2607;50.934;6.934;2023-03-05T07:39:17;5.50;99.90
5176;DHT22;2607;50.934;6.934;2023-03-05T07:41:46;5.40;99.90
5176;DHT22;2607;50.934;6.934;2023-03-05T07:44:14;5.50;99.90
5176;DHT22;2607;50.934;6.934;2023-03-05T07:46:39;5.50;99.90
5176;DHT22;2607;50.934;6.934;2023-03-05T07:49:06;5.50;99.90
5176;DHT22;2607;50.934;6.934;2023-03-05T07:51:31;5.50;99.90
5176;DHT22;2607;50.934;6.934;2023-03-05T07:53:57;5.50;99.90
5176;DHT22;2607;50.934;6.934;2023-03-05T07:56:31;5.50;99.90
5176;DHT22;2607;50.934;6.934;2023-03-05T07:59:01;5.50;99.90
5176;DHT22;2607;50.934;6.934;2023-03-05T08:01:29;5.50;99.90
5176;DHT22;2607;50.934;6.934;2023-03-05T08:03:55;5.50;99.90
5176;DHT22;2607;50.934;6.934;2023-03-05T08:06:20;5.50;99.90
5176;DHT22;2607;50.934;6.934;2023-03-05T08:08:46;5.50;99.90
5176;DHT22;2607;50.934;6.934;2023-03-05T08:11:14;5.50;99.90
5176;DHT22;2607;50.934;6.934;2023-03-05T08:13:40;5.60;99.90
5176;DHT22;2607;50.934;6.934;2023-03-05T08:16:08;5.60;99.90
5176;DHT22;2607;50.934;6.934;2023-03-05T08:18:35;5.60;99.90
5176;DHT22;2607;50.934;6.934;2023-03-05T08:21:01;5.60;99.90
5176;DHT22;2607;50.934;6.934;2023-03-05T08:23:27;5.60;99.90
5176;DHT22;2607;50.934;6.934;2023-03-05T08:25:53;5.60;99.90
5176;DHT22;2607;50.934;6.934;2023-03-05T08:28:19;5.60;99.90
5176;DHT22;2607;50.934;6.934;2023-03-05T08:30:45;5.60;99.90
5176;DHT22;2607;50.934;6.934;2023-03-05T08:33:12;5.60;99.90
5176;DHT22;2607;50.934;6.934;2023-03-05T08:35:38;5.60;99.90
5176;DHT22;2607;50.934;6.934;2023-03-05T08:38:04;5.60;99.90
5176;DHT22;2607;50.934;6.934;2023-03-05T08:40:30;5.60;99.90
5176;DHT22;2607;50.934;6.934;2023-03-05T08:42:56;5.70;99.90
5176;DHT22;2607;50.934;6.934;2023-03-05T08:45:22;5.70;99.90
5176;DHT22;2607;50.934;6.934;2023-03-05T08:47:48;5.70;99.90
5176;DHT22;2607;50.934;6.934;2023-03-05T08:50:14;5.70;99.90
5176;DHT22;2607;50.934;6.934;2023-03-05T08:52:39;5.80;99.90
5176;DHT22;2607;50.934;6.934;2023-03-05T08:55:05;5.80;99.90
5176;DHT22;2607;50.934;6.934;2023-03-05T08:57:31;5.80;99.90
5176;DHT22;2607;50.934;6.934;2023-03-05T08:59:56;5.80;99.90
5176;DHT22;2607;50.934;6.934;2023-03-05T09:02:22;5.80;99.90
5176;DHT22;2607;50.934;6.934;2023-03-05T09:04:47;5.90;99.90
5176;DHT22;2607;50.934;6.934;2023-03-05T09:07:13;5.90;99.90
5176;DHT22;2607;50.934;6.934;2023-03-05T09:09:38;5.90;99.90
5176;DHT22;2607;50.934;6.934;2023-03-05T09:12:04;5.90;99.90
5176;DHT22;2607;50.934;6.934;2023-03-05T09:14:30;6.00;99.90
5176;DHT22;2607;50.934;6.934;2023-03-05T09:16:56;6.00;99.90
5176;DHT22;2607;50.934;6.934;2023-03-05T09:19:22;6.10;99.90
5176;DHT22;2607;50.934;6.934;2023-03-05T09:21:48;6.10;99.90
5176;DHT22;2607;50.934;6.934;2023-03-05T09:24:13;6.10;99.90
5176;DHT22;2607;50.934;6.934;2023-03-05T09:26:39;6.10;99.90
5176;DHT22;2607;50.934;6.934;2023-03-05T09:29:07;6.30;99.90
5176;DHT22;2607;50.934;6.934;2023-03-05T09:31:34;6.30;99.90
5176;DHT22;2607;50.934;6.934;2023-03-05T09:34:00;6.30;99.90
5176;DHT22;2607;50.934;6.934;2023-03-05T09:36:27;6.30;99.90
5176;DHT22;2607;50.934;6.934;2023-03-05T09:38:53;6.40;99.90
5176;DHT22;2607;50.934;6.934;2023-03-05T09:49:13;6.70;99.90
5176;DHT22;2607;50.934;6.934;2023-03-05T09:51:40;6.70;99.90
5176;DHT22;2607;50.934;6.934;2023-03-05T09:54:18;6.70;99.90
5176;DHT22;2607;50.934;6.934;2023-03-05T09:56:49;6.70;99.90
5176;DHT22;2607;50.934;6.934;2023-03-05T10:01:56;6.70;99.90
5176;DHT22;2607;50.934;6.934;2023-03-05T10:04:27;6.70;99.90
5176;DHT22;2607;50.934;6.934;2023-03-05T10:07:03;6.70;99.90
5176;DHT22;2607;50.934;6.934;2023-03-05T10:09:56;6.70;99.90
5176;DHT22;2607;50.934;6.934;2023-03-05T10:14:52;6.70;99.90
5176;DHT22;2607;50.934;6.934;2023-03-05T10:28:16;6.70;99.90
5176;DHT22;2607;50.934;6.934;2023-03-05T10:36:34;6.70;99.90
5176;DHT22;2607;50.934;6.934;2023-03-05T10:42:27;6.50;99.90
5176;DHT22;2607;50.934;6.934;2023-03-05T10:44:56;6.40;99.90
5176;DHT22;2607;50.934;6.934;2023-03-05T10:47:43;6.40;99.90
5176;DHT22;2607;50.934;6.934;2023-03-05T10:50:18;6.30;99.90
5176;DHT22;2607;50.934;6.934;2023-03-05T10:52:45;6.20;99.90
5176;DHT22;2607;50.934;6.934;2023-03-05T10:55:15;6.20;99.90
5176;DHT22;2607;50.934;6.934;2023-03-05T10:57:42;6.20;99.90
5176;DHT22;2607;50.934;6.934;2023-03-05T11:00:26;6.30;99.90
5176;DHT22;2607;50.934;6.934;2023-03-05T11:03:03;6.20;99.90
5176;DHT22;2607;50.934;6.934;2023-03-05T11:05:46;6.10;99.90
5176;DHT22;2607;50.934;6.934;2023-03-05T11:08:44;6.10;99.90
5176;DHT22;2607;50.934;6.934;2023-03-05T11:11:17;6.20;99.90
5176;DHT22;2607;50.934;6.934;2023-03-05T11:13:51;6.10;99.90
5176;DHT22;2607;50.934;6.934;2023-03-05T11:16:29;6.10;99.90
5176;DHT22;2607;50.934;6.934;2023-03-05T11:21:40;6.10;99.90
5176;DHT22;2607;50.934;6.934;2023-03-05T11:24:11;6.10;99.90
5176;DHT22;2607;50.934;6.934;2023-03-05T11:26:51;6.00;99.90
5176;DHT22;2607;50.934;6.934;2023-03-05T11:29:23;6.10;99.90
5176;DHT22;2607;50.934;6.934;2023-03-05T11:31:50;6.10;99.90
5176;DHT22;2607;50.934;6.934;2023-03-05T11:37:04;6.10;99.90
5176;DHT22;2607;50.934;6.934;2023-03-05T11:39:29;6.20;99.90
5176;DHT22;2607;50.934;6.934;2023-03-05T11:42:00;6.20;99.90
5176;DHT22;2607;50.934;6.934;2023-03-05T11:44:47;6.30;99.90
5176;DHT22;2607;50.934;6.934;2023-03-05T11:47:25;6.30;99.90
5176;DHT22;2607;50.934;6.934;2023-03-05T11:50:10;6.40;99.90
5176;DHT22;2607;50.934;6.934;2023-03-05T11:52:45;6.40;99.90
5176;DHT22;2607;50.934;6.934;2023-03-05T12:00:36;6.40;99.90
5176;DHT22;2607;50.934;6.934;2023-03-05T12:03:06;6.40;99.90
5176;DHT22;2607;50.934;6.934;2023-03-05T12:05:36;6.40;99.90
5176;DHT22;2607;50.934;6.934;2023-03-05T12:08:05;6.40;99.90
5176;DHT22;2607;50.934;6.934;2023-03-05T12:10:36;6.40;99.90
5176;DHT22;2607;50.934;6.934;2023-03-05T12:15:43;6.50;99.90
5176;DHT22;2607;50.934;6.934;2023-03-05T12:23:43;6.50;99.90
5176;DHT22;2607;50.934;6.934;2023-03-05T12:26:09;6.50;99.90
5176;DHT22;2607;50.934;6.934;2023-03-05T12:33:44;6.60;99.90
5176;DHT22;2607;50.934;6.934;2023-03-05T12:38:55;6.50;99.90
5176;DHT22;2607;50.934;6.934;2023-03-05T12:46:37;6.60;99.90
5176;DHT22;2607;50.934;6.934;2023-03-05T12:51:46;6.50;99.90
5176;DHT22;2607;50.934;6.934;2023-03-05T12:56:57;6.60;99.90
5176;DHT22;2607;50.934;6.934;2023-03-05T13:00:28;6.60;99.90
5176;DHT22;2607;50.934;6.934;2023-03-05T13:02:39;6.60;99.90
5176;DHT22;2607;50.934;6.934;2023-03-05T13:05:29;6.70;99.90
5176;DHT22;2607;50.934;6.934;2023-03-05T13:08:18;6.70;99.90
5176;DHT22;2607;50.934;6.934;2023-03-05T13:10:57;6.80;99.90
5176;DHT22;2607;50.934;6.934;2023-03-05T13:13:25;6.80;99.90
5176;DHT22;2607;50.934;6.934;2023-03-05T13:15:51;6.80;99.90
5176;DHT22;2607;50.934;6.934;2023-03-05T13:18:22;6.80;99.90
5176;DHT22;2607;50.934;6.934;2023-03-05T13:21:03;6.80;99.90
5176;DHT22;2607;50.934;6.934;2023-03-05T13:23:30;6.80;99.90
5176;DHT22;2607;50.934;6.934;2023-03-05T13:28:25;6.90;99.90
5176;DHT22;2607;50.934;6.934;2023-03-05T13:31:00;6.80;99.90
5176;DHT22;2607;50.934;6.934;2023-03-05T13:33:36;6.80;99.90
5176;DHT22;2607;50.934;6.934;2023-03-05T13:36:03;6.80;99.90
5176;DHT22;2607;50.934;6.934;2023-03-05T13:38:39;6.90;99.90
5176;DHT22;2607;50.934;6.934;2023-03-05T13:41:17;6.90;99.90
5176;DHT22;2607;50.934;6.934;2023-03-05T13:43:52;6.90;99.90
5176;DHT22;2607;50.934;6.934;2023-03-05T13:46:34;6.90;99.90
5176;DHT22;2607;50.934;6.934;2023-03-05T13:49:22;6.80;99.90
5176;DHT22;2607;50.934;6.934;2023-03-05T13:51:56;6.80;99.90
5176;DHT22;2607;50.934;6.934;2023-03-05T13:54:23;6.70;99.90
5176;DHT22;2607;50.934;6.934;2023-03-05T13:56:52;6.70;99.90
5176;DHT22;2607;50.934;6.934;2023-03-05T13:59:21;6.70;99.90
5176;DHT22;2607;50.934;6.934;2023-03-05T14:01:47;6.60;99.90
5176;DHT22;2607;50.934;6.934;2023-03-05T14:07:20;6.60;99.90
5176;DHT22;2607;50.934;6.934;2023-03-05T14:09:50;6.60;99.90
5176;DHT22;2607;50.934;6.934;2023-03-05T14:14:51;6.60;99.90
5176;DHT22;2607;50.934;6.934;2023-03-05T14:20:17;6.70;99.90
5176;DHT22;2607;50.934;6.934;2023-03-05T14:22:40;6.60;99.90
5176;DHT22;2607;50.934;6.934;2023-03-05T14:27:51;6.70;99.90
5176;DHT22;2607;50.934;6.934;2023-03-05T14:30:19;6.60;99.90
5176;DHT22;2607;50.934;6.934;2023-03-05T14:32:46;6.60;99.90
5176;DHT22;2607;50.934;6.934;2023-03-05T14:35:17;6.60;99.90
5176;DHT22;2607;50.934;6.934;2023-03-05T14:37:45;6.50;99.90
5176;DHT22;2607;50.934;6.934;2023-03-05T14:42:55;6.40;99.90
5176;DHT22;2607;50.934;6.934;2023-03-05T14:45:31;6.40;99.90
5176;DHT22;2607;50.934;6.934;2023-03-05T14:47:57;6.30;99.90
5176;DHT22;2607;50.934;6.934;2023-03-05T14:50:29;6.30;99.90
5176;DHT22;2607;50.934;6.934;2023-03-05T14:53:02;6.30;99.90
5176;DHT22;2607;50.934;6.934;2023-03-05T14:55:31;6.20;99.90
5176;DHT22;2607;50.934;6.934;2023-03-05T14:58:02;6.20;99.90
5176;DHT22;2607;50.934;6.934;2023-03-05T15:00:29;6.20;99.90
5176;DHT22;2607;50.934;6.934;2023-03-05T15:02:55;6.10;99.90
5176;DHT22;2607;50.934;6.934;2023-03-05T15:05:22;6.10;99.90
5176;DHT22;2607;50.934;6.934;2023-03-05T15:07:49;6.10;99.90
5176;DHT22;2607;50.934;6.934;2023-03-05T15:10:18;6.00;99.90
5176;DHT22;2607;50.934;6.934;2023-03-05T15:12:44;6.00;99.90
5176;DHT22;2607;50.934;6.934;2023-03-05T15:15:13;6.00;99.90
5176;DHT22;2607;50.934;6.934;2023-03-05T15:17:40;6.00;99.90
5176;DHT22;2607;50.934;6.934;2023-03-05T15:20:20;6.00;99.90
5176;DHT22;2607;50.934;6.934;2023-03-05T15:22:46;6.00;99.90
5176;DHT22;2607;50.934;6.934;2023-03-05T15:25:11;6.00;99.90
5176;DHT22;2607;50.934;6.934;2023-03-05T15:27:37;5.90;99.90
5176;DHT22;2607;50.934;6.934;2023-03-05T15:30:04;5.90;99.90
5176;DHT22;2607;50.934;6.934;2023-03-05T15:32:31;5.90;99.90
5176;DHT22;2607;50.934;6.934;2023-03-05T15:34:57;6.00;99.90
5176;DHT22;2607;50.934;6.934;2023-03-05T15:37:23;5.90;99.90
5176;DHT22;2607;50.934;6.934;2023-03-05T15:39:50;5.90;99.90
5176;DHT22;2607;50.934;6.934;2023-03-05T15:42:15;6.00;99.90
5176;DHT22;2607;50.934;6.934;2023-03-05T15:44:41;6.00;99.90
5176;DHT22;2607;50.934;6.934;2023-03-05T15:47:07;6.00;99.90
5176;DHT22;2607;50.934;6.934;2023-03-05T15:49:32;6.00;99.90
5176;DHT22;2607;50.934;6.934;2023-03-05T15:51:58;6.00;99.90
5176;DHT22;2607;50.934;6.934;2023-03-05T15:54:23;6.00;99.90
5176;DHT22;2607;50.934;6.934;2023-03-05T15:56:49;6.00;99.90
5176;DHT22;2607;50.934;6.934;2023-03-05T15:59:16;6.00;99.90
5176;DHT22;2607;50.934;6.934;2023-03-05T16:01:49;5.90;99.90
5176;DHT22;2607;50.934;6.934;2023-03-05T16:04:16;5.90;99.90
5176;DHT22;2607;50.934;6.934;2023-03-05T16:06:45;5.90;99.90
5176;DHT22;2607;50.934;6.934;2023-03-05T16:09:12;5.90;99.90
5176;DHT22;2607;50.934;6.934;2023-03-05T16:11:39;5.90;99.90
5176;DHT22;2607;50.934;6.934;2023-03-05T16:14:09;5.90;99.90
5176;DHT22;2607;50.934;6.934;2023-03-05T16:16:35;5.90;99.90
5176;DHT22;2607;50.934;6.934;2023-03-05T16:19:04;5.90;99.90
5176;DHT22;2607;50.934;6.934;2023-03-05T16:21:31;5.90;99.90
5176;DHT22;2607;50.934;6.934;2023-03-05T16:23:56;5.90;99.90
5176;DHT22;2607;50.934;6.934;2023-03-05T16:26:24;5.90;99.90
5176;DHT22;2607;50.934;6.934;2023-03-05T16:28:49;5.90;99.90
5176;DHT22;2607;50.934;6.934;2023-03-05T16:31:15;5.80;99.90
5176;DHT22;2607;50.934;6.934;2023-03-05T16:33:40;5.80;99.90
5176;DHT22;2607;50.934;6.934;2023-03-05T16:36:37;5.80;99.90
5176;DHT22;2607;50.934;6.934;2023-03-05T16:39:03;5.80;99.90
5176;DHT22;2607;50.934;6.934;2023-03-05T16:41:29;5.80;99.90
5176;DHT22;2607;50.934;6.934;2023-03-05T16:43:55;5.80;99.90
5176;DHT22;2607;50.934;6.934;2023-03-05T16:46:25;5.80;99.90
5176;DHT22;2607;50.934;6.934;2023-03-05T16:48:52;5.80;99.90
5176;DHT22;2607;50.934;6.934;2023-03-05T16:51:18;5.80;99.90
5176;DHT22;2607;50.934;6.934;2023-03-05T16:53:44;5.80;99.90
5176;DHT22;2607;50.934;6.934;2023-03-05T16:56:10;5.80;99.90
5176;DHT22;2607;50.934;6.934;2023-03-05T16:58:37;5.80;99.90
5176;DHT22;2607;50.934;6.934;2023-03-05T17:01:11;5.80;99.90
5176;DHT22;2607;50.934;6.934;2023-03-05T17:03:37;5.70;99.90
5176;DHT22;2607;50.934;6.934;2023-03-05T17:06:17;5.80;99.90
5176;DHT22;2607;50.934;6.934;2023-03-05T17:08:44;5.70;99.90
5176;DHT22;2607;50.934;6.934;2023-03-05T17:11:11;5.70;99.90
5176;DHT22;2607;50.934;6.934;2023-03-05T17:13:37;5.70;99.90
5176;DHT22;2607;50.934;6.934;2023-03-05T17:16:04;5.60;99.90
5176;DHT22;2607;50.934;6.934;2023-03-05T17:18:30;5.60;99.90
5176;DHT22;2607;50.934;6.934;2023-03-05T17:20:56;5.60;99.90
5176;DHT22;2607;50.934;6.934;2023-03-05T17:23:22;5.60;99.90
5176;DHT22;2607;50.934;6.934;2023-03-05T17:25:47;5.60;99.90
5176;DHT22;2607;50.934;6.934;2023-03-05T17:28:13;5.60;99.90
5176;DHT22;2607;50.934;6.934;2023-03-05T17:30:39;5.60;99.90
5176;DHT22;2607;50.934;6.934;2023-03-05T17:33:05;5.60;99.90
5176;DHT22;2607;50.934;6.934;2023-03-05T17:35:30;5.60;99.90
5176;DHT22;2607;50.934;6.934;2023-03-05T17:37:56;5.60;99.90
5176;DHT22;2607;50.934;6.934;2023-03-05T17:40:23;5.60;99.90
5176;DHT22;2607;50.934;6.934;2023-03-05T17:42:49;5.50;99.90
5176;DHT22;2607;50.934;6.934;2023-03-05T17:45:15;5.60;99.90
5176;DHT22;2607;50.934;6.934;2023-03-05T17:47:41;5.60;99.90
5176;DHT22;2607;50.934;6.934;2023-03-05T17:50:08;5.50;99.90
5176;DHT22;2607;50.934;6.934;2023-03-05T17:52:35;5.60;99.90
5176;DHT22;2607;50.934;6.934;2023-03-05T17:55:05;5.60;99.90